Aérodrome :
LOGIN :

S'inscrire | Disclaimer

   EN    FR    IT 

 










Légende :    VFR   VFR Marginal   IFR   IFR Intensif   IFR Très Intensif
Visi : 
Plafond : 
>= 8 km
>= 3000ft
5 à 8 km
1000 à 3000 ft
1500m à 5 km
500 à 1000 ft
800 à 1500m
200 à 500 ft
< 800m
< 200 ft
Symboles :   Orages  Brouillard  Fortes neiges  Fortes précipitations  Vent > 20 kt
SIGMETs :   Divers  Orages  Givrage  Turbulence  Onde Orograph.  Cendres Volcan.






- Altitude de l'aérodrome : 325 ft
- Code IATA : BES


LFRB - Brest

DERNIER METAR :
  • 090930Z AUTO 15005KT 130V200 CAVOK 08/01 Q1024 NOSIG

METARs EXPIRÉS :
  • 090900Z AUTO VRB02KT CAVOK 08/02 Q1024 NOSIG
  • 090830Z AUTO 00000KT CAVOK 06/02 Q1024 NOSIG
  • 090800Z AUTO VRB01KT 9000 NSC 03/01 Q1023 NOSIG
  • 090730Z AUTO 19002KT CAVOK 00/M01 Q1023 NOSIG
  • 090700Z AUTO VRB01KT CAVOK M00/M02 Q1023 NOSIG

TAF TAF LFRB
Valide du 09 à 06h jusqu'au 10 à 12h UTC


090500Z 0906/1012 VRB05KT 9999 SCT035
BECMG 0915/0917 22010KT
BECMG 1000/1003 20015G25KT
BECMG 1003/1006 BKN015
BECMG 1006/1008 20020G33KT
TEMPO 1006/1012 3000 RADZ BKN008
ATIS : +33 2 98 32 02 71



MET'MAP, la Météo Aéronautique d'un coup d'oeil ! - Copyright ORBIFLY Décembre 2007 - Disclaimer

ORBIFLY MET'MAP TEAM :

Programmation & Développement : Alexandra Zaïnal
Sur une idée originale de : Baudouin d'Aumeries
Assistance à la programmation : Marc-Olivier Méhu
Soutien technique & logistique : Manuel Goepfert

Contact : metmap@orbifly.com




SOURCES & CREDITS :

   NOAA